sensor_id;sensor_type;location;lat;lon;timestamp;P1;durP1;ratioP1;P2;durP2;ratioP2
60610;SDS011;46439;51.164;13.572;2023-01-30T00:00:50;12.10;;;7.80;;
60610;SDS011;46439;51.164;13.572;2023-01-30T00:03:19;16.30;;;9.20;;
60610;SDS011;46439;51.164;13.572;2023-01-30T00:05:48;11.90;;;8.80;;
60610;SDS011;46439;51.164;13.572;2023-01-30T00:08:17;14.10;;;8.20;;
60610;SDS011;46439;51.164;13.572;2023-01-30T00:10:46;12.60;;;8.50;;
60610;SDS011;46439;51.164;13.572;2023-01-30T00:13:15;11.90;;;7.80;;
60610;SDS011;46439;51.164;13.572;2023-01-30T00:15:43;11.90;;;8.00;;
60610;SDS011;46439;51.164;13.572;2023-01-30T00:18:13;13.40;;;8.40;;
60610;SDS011;46439;51.164;13.572;2023-01-30T00:20:55;11.60;;;7.90;;
60610;SDS011;46439;51.164;13.572;2023-01-30T00:23:25;14.50;;;8.80;;
60610;SDS011;46439;51.164;13.572;2023-01-30T00:25:55;12.00;;;7.60;;
60610;SDS011;46439;51.164;13.572;2023-01-30T00:28:35;13.80;;;7.70;;
60610;SDS011;46439;51.164;13.572;2023-01-30T00:31:05;12.70;;;7.10;;
60610;SDS011;46439;51.164;13.572;2023-01-30T00:33:34;10.60;;;6.30;;
60610;SDS011;46439;51.164;13.572;2023-01-30T00:36:06;11.60;;;8.20;;
60610;SDS011;46439;51.164;13.572;2023-01-30T00:38:35;13.10;;;7.70;;
60610;SDS011;46439;51.164;13.572;2023-01-30T00:41:04;11.90;;;7.20;;
60610;SDS011;46439;51.164;13.572;2023-01-30T00:43:32;14.30;;;8.40;;
60610;SDS011;46439;51.164;13.572;2023-01-30T00:46:21;11.30;;;7.10;;
60610;SDS011;46439;51.164;13.572;2023-01-30T00:49:17;11.30;;;7.90;;
60610;SDS011;46439;51.164;13.572;2023-01-30T00:51:46;12.70;;;8.50;;
60610;SDS011;46439;51.164;13.572;2023-01-30T00:54:16;11.60;;;6.90;;
60610;SDS011;46439;51.164;13.572;2023-01-30T00:56:45;12.50;;;8.00;;
60610;SDS011;46439;51.164;13.572;2023-01-30T00:59:33;11.80;;;6.30;;
60610;SDS011;46439;51.164;13.572;2023-01-30T01:02:02;12.80;;;8.50;;
60610;SDS011;46439;51.164;13.572;2023-01-30T01:04:30;12.80;;;8.40;;
60610;SDS011;46439;51.164;13.572;2023-01-30T01:07:08;13.00;;;6.90;;
60610;SDS011;46439;51.164;13.572;2023-01-30T01:09:38;12.20;;;8.00;;
60610;SDS011;46439;51.164;13.572;2023-01-30T01:12:06;12.30;;;7.60;;
60610;SDS011;46439;51.164;13.572;2023-01-30T01:14:35;10.80;;;7.30;;
60610;SDS011;46439;51.164;13.572;2023-01-30T01:17:04;12.70;;;7.90;;
60610;SDS011;46439;51.164;13.572;2023-01-30T01:19:33;11.40;;;8.00;;
60610;SDS011;46439;51.164;13.572;2023-01-30T01:22:02;15.70;;;8.40;;
60610;SDS011;46439;51.164;13.572;2023-01-30T01:24:30;11.30;;;7.30;;
60610;SDS011;46439;51.164;13.572;2023-01-30T01:26:59;10.00;;;6.70;;
60610;SDS011;46439;51.164;13.572;2023-01-30T01:29:27;12.60;;;8.10;;
60610;SDS011;46439;51.164;13.572;2023-01-30T01:31:57;12.80;;;8.00;;
60610;SDS011;46439;51.164;13.572;2023-01-30T01:34:26;9.20;;;6.00;;
60610;SDS011;46439;51.164;13.572;2023-01-30T01:36:54;10.20;;;6.60;;
60610;SDS011;46439;51.164;13.572;2023-01-30T01:39:23;13.70;;;7.70;;
60610;SDS011;46439;51.164;13.572;2023-01-30T01:42:11;14.00;;;7.20;;
60610;SDS011;46439;51.164;13.572;2023-01-30T01:47:28;12.60;;;7.90;;
60610;SDS011;46439;51.164;13.572;2023-01-30T01:49:59;11.50;;;7.70;;
60610;SDS011;46439;51.164;13.572;2023-01-30T01:52:29;12.30;;;8.00;;
60610;SDS011;46439;51.164;13.572;2023-01-30T01:54:59;10.20;;;6.30;;
60610;SDS011;46439;51.164;13.572;2023-01-30T01:57:31;11.60;;;7.10;;
60610;SDS011;46439;51.164;13.572;2023-01-30T02:00:04;12.10;;;7.50;;
60610;SDS011;46439;51.164;13.572;2023-01-30T02:02:37;14.50;;;8.00;;
60610;SDS011;46439;51.164;13.572;2023-01-30T02:05:06;11.30;;;6.80;;
60610;SDS011;46439;51.164;13.572;2023-01-30T02:07:37;13.10;;;7.50;;
60610;SDS011;46439;51.164;13.572;2023-01-30T02:10:12;14.90;;;8.10;;
60610;SDS011;46439;51.164;13.572;2023-01-30T02:12:44;14.60;;;8.40;;
60610;SDS011;46439;51.164;13.572;2023-01-30T02:15:13;13.90;;;8.50;;
60610;SDS011;46439;51.164;13.572;2023-01-30T02:17:43;11.80;;;7.80;;
60610;SDS011;46439;51.164;13.572;2023-01-30T02:20:13;12.80;;;6.80;;
60610;SDS011;46439;51.164;13.572;2023-01-30T02:26:02;14.70;;;8.60;;
60610;SDS011;46439;51.164;13.572;2023-01-30T02:28:50;13.60;;;9.10;;
60610;SDS011;46439;51.164;13.572;2023-01-30T02:31:36;11.60;;;7.50;;
60610;SDS011;46439;51.164;13.572;2023-01-30T02:34:18;13.50;;;7.90;;
60610;SDS011;46439;51.164;13.572;2023-01-30T02:37:03;13.50;;;8.20;;
60610;SDS011;46439;51.164;13.572;2023-01-30T02:39:43;11.60;;;7.30;;
60610;SDS011;46439;51.164;13.572;2023-01-30T02:42:24;11.10;;;7.00;;
60610;SDS011;46439;51.164;13.572;2023-01-30T02:45:00;16.30;;;9.80;;
60610;SDS011;46439;51.164;13.572;2023-01-30T02:47:37;17.50;;;8.70;;
60610;SDS011;46439;51.164;13.572;2023-01-30T02:50:11;12.80;;;7.40;;
60610;SDS011;46439;51.164;13.572;2023-01-30T02:52:43;12.20;;;8.20;;
60610;SDS011;46439;51.164;13.572;2023-01-30T02:55:18;13.30;;;7.50;;
60610;SDS011;46439;51.164;13.572;2023-01-30T02:57:48;14.10;;;8.20;;
60610;SDS011;46439;51.164;13.572;2023-01-30T03:00:19;17.40;;;9.00;;
60610;SDS011;46439;51.164;13.572;2023-01-30T03:02:56;14.20;;;7.70;;
60610;SDS011;46439;51.164;13.572;2023-01-30T03:05:53;14.60;;;9.00;;
60610;SDS011;46439;51.164;13.572;2023-01-30T03:08:37;15.10;;;8.30;;
60610;SDS011;46439;51.164;13.572;2023-01-30T03:11:13;15.50;;;8.80;;
60610;SDS011;46439;51.164;13.572;2023-01-30T03:13:47;14.40;;;8.20;;
60610;SDS011;46439;51.164;13.572;2023-01-30T03:16:21;15.10;;;8.70;;
60610;SDS011;46439;51.164;13.572;2023-01-30T03:19:01;13.30;;;8.30;;
60610;SDS011;46439;51.164;13.572;2023-01-30T03:21:34;12.90;;;7.60;;
60610;SDS011;46439;51.164;13.572;2023-01-30T03:24:08;13.80;;;8.20;;
60610;SDS011;46439;51.164;13.572;2023-01-30T03:26:38;12.40;;;7.10;;
60610;SDS011;46439;51.164;13.572;2023-01-30T03:29:09;16.30;;;9.50;;
60610;SDS011;46439;51.164;13.572;2023-01-30T03:31:38;11.30;;;7.70;;
60610;SDS011;46439;51.164;13.572;2023-01-30T03:34:06;12.30;;;7.70;;
60610;SDS011;46439;51.164;13.572;2023-01-30T03:36:35;14.60;;;8.40;;
60610;SDS011;46439;51.164;13.572;2023-01-30T03:39:04;13.60;;;8.30;;
60610;SDS011;46439;51.164;13.572;2023-01-30T03:41:32;13.80;;;8.00;;
60610;SDS011;46439;51.164;13.572;2023-01-30T03:44:01;16.80;;;10.20;;
60610;SDS011;46439;51.164;13.572;2023-01-30T03:46:30;11.50;;;7.50;;
60610;SDS011;46439;51.164;13.572;2023-01-30T03:48:59;11.20;;;6.60;;
60610;SDS011;46439;51.164;13.572;2023-01-30T03:51:27;10.50;;;7.00;;
60610;SDS011;46439;51.164;13.572;2023-01-30T03:53:56;10.10;;;6.50;;
60610;SDS011;46439;51.164;13.572;2023-01-30T03:56:24;11.10;;;7.00;;
60610;SDS011;46439;51.164;13.572;2023-01-30T03:58:52;12.70;;;6.90;;
60610;SDS011;46439;51.164;13.572;2023-01-30T04:01:21;11.60;;;6.60;;
60610;SDS011;46439;51.164;13.572;2023-01-30T04:03:49;11.50;;;7.40;;
60610;SDS011;46439;51.164;13.572;2023-01-30T04:06:18;10.40;;;6.30;;
60610;SDS011;46439;51.164;13.572;2023-01-30T04:08:46;11.90;;;6.10;;
60610;SDS011;46439;51.164;13.572;2023-01-30T04:11:17;11.40;;;6.80;;
60610;SDS011;46439;51.164;13.572;2023-01-30T04:13:45;10.60;;;6.00;;
60610;SDS011;46439;51.164;13.572;2023-01-30T04:16:15;11.10;;;7.10;;
60610;SDS011;46439;51.164;13.572;2023-01-30T04:18:45;11.00;;;7.10;;
60610;SDS011;46439;51.164;13.572;2023-01-30T04:21:14;10.10;;;6.70;;
60610;SDS011;46439;51.164;13.572;2023-01-30T04:23:43;10.20;;;6.80;;
60610;SDS011;46439;51.164;13.572;2023-01-30T04:26:11;12.90;;;7.80;;
60610;SDS011;46439;51.164;13.572;2023-01-30T04:28:40;9.20;;;5.20;;
60610;SDS011;46439;51.164;13.572;2023-01-30T04:31:10;12.60;;;7.50;;
60610;SDS011;46439;51.164;13.572;2023-01-30T04:33:38;15.40;;;9.10;;
60610;SDS011;46439;51.164;13.572;2023-01-30T04:36:09;11.30;;;6.40;;
60610;SDS011;46439;51.164;13.572;2023-01-30T04:38:38;11.20;;;6.60;;
60610;SDS011;46439;51.164;13.572;2023-01-30T04:41:07;12.20;;;7.20;;
60610;SDS011;46439;51.164;13.572;2023-01-30T04:43:35;10.70;;;6.80;;
60610;SDS011;46439;51.164;13.572;2023-01-30T04:46:04;10.30;;;6.70;;
60610;SDS011;46439;51.164;13.572;2023-01-30T04:48:32;12.10;;;7.00;;
60610;SDS011;46439;51.164;13.572;2023-01-30T04:51:01;11.00;;;6.80;;
60610;SDS011;46439;51.164;13.572;2023-01-30T04:53:29;10.30;;;5.80;;
60610;SDS011;46439;51.164;13.572;2023-01-30T04:55:58;11.60;;;6.60;;
60610;SDS011;46439;51.164;13.572;2023-01-30T04:58:26;10.90;;;6.50;;
60610;SDS011;46439;51.164;13.572;2023-01-30T05:00:54;9.80;;;6.40;;
60610;SDS011;46439;51.164;13.572;2023-01-30T05:06:04;11.00;;;6.50;;
60610;SDS011;46439;51.164;13.572;2023-01-30T05:08:33;10.30;;;6.20;;
60610;SDS011;46439;51.164;13.572;2023-01-30T05:11:01;9.90;;;6.40;;
60610;SDS011;46439;51.164;13.572;2023-01-30T05:13:30;11.90;;;6.50;;
60610;SDS011;46439;51.164;13.572;2023-01-30T05:15:58;9.90;;;6.20;;
60610;SDS011;46439;51.164;13.572;2023-01-30T05:18:27;10.80;;;6.50;;
60610;SDS011;46439;51.164;13.572;2023-01-30T05:21:02;11.40;;;7.50;;
60610;SDS011;46439;51.164;13.572;2023-01-30T05:23:33;10.40;;;6.90;;
60610;SDS011;46439;51.164;13.572;2023-01-30T05:26:01;12.50;;;7.70;;
60610;SDS011;46439;51.164;13.572;2023-01-30T05:28:30;11.10;;;7.10;;
60610;SDS011;46439;51.164;13.572;2023-01-30T05:31:01;10.90;;;6.30;;
60610;SDS011;46439;51.164;13.572;2023-01-30T05:33:30;12.70;;;7.60;;
60610;SDS011;46439;51.164;13.572;2023-01-30T05:35:59;10.10;;;6.30;;
60610;SDS011;46439;51.164;13.572;2023-01-30T05:38:27;10.90;;;6.70;;
60610;SDS011;46439;51.164;13.572;2023-01-30T05:41:00;10.60;;;6.40;;
60610;SDS011;46439;51.164;13.572;2023-01-30T05:43:29;13.70;;;6.70;;
60610;SDS011;46439;51.164;13.572;2023-01-30T05:45:59;10.70;;;7.40;;
60610;SDS011;46439;51.164;13.572;2023-01-30T05:48:29;10.10;;;6.60;;
60610;SDS011;46439;51.164;13.572;2023-01-30T05:50:58;9.60;;;6.00;;
60610;SDS011;46439;51.164;13.572;2023-01-30T05:53:28;11.40;;;6.80;;
60610;SDS011;46439;51.164;13.572;2023-01-30T05:56:00;11.40;;;6.30;;
60610;SDS011;46439;51.164;13.572;2023-01-30T05:58:30;11.40;;;6.50;;
60610;SDS011;46439;51.164;13.572;2023-01-30T06:01:03;10.00;;;6.10;;
60610;SDS011;46439;51.164;13.572;2023-01-30T06:03:32;10.70;;;6.30;;
60610;SDS011;46439;51.164;13.572;2023-01-30T06:06:01;10.30;;;6.50;;
60610;SDS011;46439;51.164;13.572;2023-01-30T06:08:31;9.40;;;5.90;;
60610;SDS011;46439;51.164;13.572;2023-01-30T06:11:01;8.10;;;5.50;;
60610;SDS011;46439;51.164;13.572;2023-01-30T06:13:30;8.60;;;5.10;;
60610;SDS011;46439;51.164;13.572;2023-01-30T06:15:59;10.80;;;6.40;;
60610;SDS011;46439;51.164;13.572;2023-01-30T06:18:28;10.00;;;6.60;;
60610;SDS011;46439;51.164;13.572;2023-01-30T06:20:56;10.50;;;6.90;;
60610;SDS011;46439;51.164;13.572;2023-01-30T06:23:25;8.40;;;5.80;;
60610;SDS011;46439;51.164;13.572;2023-01-30T06:25:54;8.70;;;5.60;;
60610;SDS011;46439;51.164;13.572;2023-01-30T06:28:22;8.80;;;5.60;;
60610;SDS011;46439;51.164;13.572;2023-01-30T06:30:51;9.20;;;6.20;;
60610;SDS011;46439;51.164;13.572;2023-01-30T06:33:20;9.90;;;6.20;;
60610;SDS011;46439;51.164;13.572;2023-01-30T06:35:49;10.00;;;6.00;;
60610;SDS011;46439;51.164;13.572;2023-01-30T06:38:19;11.80;;;6.90;;
60610;SDS011;46439;51.164;13.572;2023-01-30T06:40:48;10.20;;;6.50;;
60610;SDS011;46439;51.164;13.572;2023-01-30T06:43:17;11.20;;;6.40;;
60610;SDS011;46439;51.164;13.572;2023-01-30T06:45:46;11.00;;;6.70;;
60610;SDS011;46439;51.164;13.572;2023-01-30T06:48:14;9.40;;;6.30;;
60610;SDS011;46439;51.164;13.572;2023-01-30T06:50:44;8.90;;;5.50;;
60610;SDS011;46439;51.164;13.572;2023-01-30T06:53:13;9.10;;;6.10;;
60610;SDS011;46439;51.164;13.572;2023-01-30T06:55:42;10.20;;;7.00;;
60610;SDS011;46439;51.164;13.572;2023-01-30T06:58:11;10.60;;;6.70;;
60610;SDS011;46439;51.164;13.572;2023-01-30T07:00:41;9.60;;;6.10;;
60610;SDS011;46439;51.164;13.572;2023-01-30T07:03:11;9.20;;;5.20;;
60610;SDS011;46439;51.164;13.572;2023-01-30T07:05:41;10.50;;;6.50;;
60610;SDS011;46439;51.164;13.572;2023-01-30T07:08:11;10.40;;;6.50;;
60610;SDS011;46439;51.164;13.572;2023-01-30T07:10:40;10.30;;;6.20;;
60610;SDS011;46439;51.164;13.572;2023-01-30T07:13:10;9.60;;;5.60;;
60610;SDS011;46439;51.164;13.572;2023-01-30T07:15:39;12.20;;;6.40;;
60610;SDS011;46439;51.164;13.572;2023-01-30T07:18:07;8.20;;;5.30;;
60610;SDS011;46439;51.164;13.572;2023-01-30T07:20:36;9.10;;;5.80;;
60610;SDS011;46439;51.164;13.572;2023-01-30T07:23:07;9.40;;;5.60;;
60610;SDS011;46439;51.164;13.572;2023-01-30T07:25:35;9.40;;;6.10;;
60610;SDS011;46439;51.164;13.572;2023-01-30T07:28:04;8.30;;;5.50;;
60610;SDS011;46439;51.164;13.572;2023-01-30T07:30:33;8.80;;;5.20;;
60610;SDS011;46439;51.164;13.572;2023-01-30T07:33:03;8.80;;;5.20;;
60610;SDS011;46439;51.164;13.572;2023-01-30T07:35:33;8.50;;;5.40;;
60610;SDS011;46439;51.164;13.572;2023-01-30T07:38:03;7.70;;;5.00;;
60610;SDS011;46439;51.164;13.572;2023-01-30T07:40:32;8.30;;;5.50;;
60610;SDS011;46439;51.164;13.572;2023-01-30T07:43:01;8.50;;;5.50;;
60610;SDS011;46439;51.164;13.572;2023-01-30T07:45:33;6.70;;;4.20;;
60610;SDS011;46439;51.164;13.572;2023-01-30T07:50:31;8.70;;;5.30;;
60610;SDS011;46439;51.164;13.572;2023-01-30T07:52:59;7.50;;;4.90;;
60610;SDS011;46439;51.164;13.572;2023-01-30T07:55:30;8.30;;;5.00;;
60610;SDS011;46439;51.164;13.572;2023-01-30T07:57:59;7.10;;;5.00;;
60610;SDS011;46439;51.164;13.572;2023-01-30T08:00:28;8.30;;;4.70;;
60610;SDS011;46439;51.164;13.572;2023-01-30T08:02:57;6.70;;;4.30;;
60610;SDS011;46439;51.164;13.572;2023-01-30T08:05:26;5.60;;;3.60;;
60610;SDS011;46439;51.164;13.572;2023-01-30T08:10:41;6.10;;;4.00;;
60610;SDS011;46439;51.164;13.572;2023-01-30T08:13:10;6.50;;;4.10;;
60610;SDS011;46439;51.164;13.572;2023-01-30T08:15:39;6.40;;;4.40;;
60610;SDS011;46439;51.164;13.572;2023-01-30T08:18:07;6.50;;;4.00;;
60610;SDS011;46439;51.164;13.572;2023-01-30T08:20:35;7.50;;;5.20;;
60610;SDS011;46439;51.164;13.572;2023-01-30T08:23:04;6.70;;;4.10;;
60610;SDS011;46439;51.164;13.572;2023-01-30T08:25:32;6.70;;;4.40;;
60610;SDS011;46439;51.164;13.572;2023-01-30T08:28:03;6.50;;;4.40;;
60610;SDS011;46439;51.164;13.572;2023-01-30T08:30:31;6.90;;;4.40;;
60610;SDS011;46439;51.164;13.572;2023-01-30T08:33:00;6.70;;;4.20;;
60610;SDS011;46439;51.164;13.572;2023-01-30T08:35:29;8.20;;;4.50;;
60610;SDS011;46439;51.164;13.572;2023-01-30T08:37:57;6.40;;;3.90;;
60610;SDS011;46439;51.164;13.572;2023-01-30T08:40:25;6.30;;;4.00;;
60610;SDS011;46439;51.164;13.572;2023-01-30T08:42:54;6.20;;;4.00;;
60610;SDS011;46439;51.164;13.572;2023-01-30T08:45:22;5.40;;;3.50;;
60610;SDS011;46439;51.164;13.572;2023-01-30T08:47:51;6.00;;;3.70;;
60610;SDS011;46439;51.164;13.572;2023-01-30T08:50:19;6.10;;;3.80;;
60610;SDS011;46439;51.164;13.572;2023-01-30T08:52:48;6.70;;;3.80;;
60610;SDS011;46439;51.164;13.572;2023-01-30T08:55:16;4.60;;;3.20;;
60610;SDS011;46439;51.164;13.572;2023-01-30T08:57:45;5.60;;;3.40;;
60610;SDS011;46439;51.164;13.572;2023-01-30T09:00:15;6.10;;;3.50;;
60610;SDS011;46439;51.164;13.572;2023-01-30T09:02:45;5.30;;;3.70;;
60610;SDS011;46439;51.164;13.572;2023-01-30T09:05:13;5.90;;;3.40;;
60610;SDS011;46439;51.164;13.572;2023-01-30T09:07:42;5.80;;;3.80;;
60610;SDS011;46439;51.164;13.572;2023-01-30T09:10:11;4.70;;;3.50;;
60610;SDS011;46439;51.164;13.572;2023-01-30T09:12:39;4.40;;;3.00;;
60610;SDS011;46439;51.164;13.572;2023-01-30T09:15:09;4.70;;;3.00;;
60610;SDS011;46439;51.164;13.572;2023-01-30T09:17:37;4.60;;;3.40;;
60610;SDS011;46439;51.164;13.572;2023-01-30T09:20:07;5.20;;;3.50;;
60610;SDS011;46439;51.164;13.572;2023-01-30T09:22:37;5.30;;;3.50;;
60610;SDS011;46439;51.164;13.572;2023-01-30T09:25:07;5.80;;;3.50;;
60610;SDS011;46439;51.164;13.572;2023-01-30T09:27:36;5.90;;;3.60;;
60610;SDS011;46439;51.164;13.572;2023-01-30T09:30:06;6.50;;;3.50;;
60610;SDS011;46439;51.164;13.572;2023-01-30T09:32:36;7.20;;;3.50;;
60610;SDS011;46439;51.164;13.572;2023-01-30T09:35:05;4.80;;;2.90;;
60610;SDS011;46439;51.164;13.572;2023-01-30T09:37:34;5.90;;;3.20;;
60610;SDS011;46439;51.164;13.572;2023-01-30T09:40:03;4.10;;;2.80;;
60610;SDS011;46439;51.164;13.572;2023-01-30T09:45:41;4.50;;;2.80;;
60610;SDS011;46439;51.164;13.572;2023-01-30T09:48:18;4.60;;;3.10;;
60610;SDS011;46439;51.164;13.572;2023-01-30T09:51:12;3.30;;;2.50;;
60610;SDS011;46439;51.164;13.572;2023-01-30T09:53:55;4.80;;;2.70;;
60610;SDS011;46439;51.164;13.572;2023-01-30T09:56:30;3.70;;;2.70;;
60610;SDS011;46439;51.164;13.572;2023-01-30T09:59:00;3.70;;;2.60;;
60610;SDS011;46439;51.164;13.572;2023-01-30T10:01:33;4.30;;;2.60;;
60610;SDS011;46439;51.164;13.572;2023-01-30T10:04:10;3.50;;;2.00;;
60610;SDS011;46439;51.164;13.572;2023-01-30T10:06:47;3.30;;;2.40;;
60610;SDS011;46439;51.164;13.572;2023-01-30T10:09:24;3.60;;;2.40;;
60610;SDS011;46439;51.164;13.572;2023-01-30T10:12:02;2.70;;;2.30;;
60610;SDS011;46439;51.164;13.572;2023-01-30T10:14:53;2.90;;;2.20;;
60610;SDS011;46439;51.164;13.572;2023-01-30T10:17:38;2.80;;;2.20;;
60610;SDS011;46439;51.164;13.572;2023-01-30T10:20:26;2.80;;;2.10;;
60610;SDS011;46439;51.164;13.572;2023-01-30T10:23:03;3.80;;;2.40;;
60610;SDS011;46439;51.164;13.572;2023-01-30T10:25:47;3.00;;;2.50;;
60610;SDS011;46439;51.164;13.572;2023-01-30T10:28:21;3.30;;;2.40;;
60610;SDS011;46439;51.164;13.572;2023-01-30T10:30:57;3.20;;;2.40;;
60610;SDS011;46439;51.164;13.572;2023-01-30T10:33:31;2.80;;;2.10;;
60610;SDS011;46439;51.164;13.572;2023-01-30T10:36:06;3.30;;;2.40;;
60610;SDS011;46439;51.164;13.572;2023-01-30T10:38:41;3.10;;;2.40;;
60610;SDS011;46439;51.164;13.572;2023-01-30T10:41:18;4.30;;;2.80;;
60610;SDS011;46439;51.164;13.572;2023-01-30T10:43:55;3.20;;;2.40;;
60610;SDS011;46439;51.164;13.572;2023-01-30T10:46:32;3.60;;;2.30;;
60610;SDS011;46439;51.164;13.572;2023-01-30T10:49:14;3.60;;;2.00;;
60610;SDS011;46439;51.164;13.572;2023-01-30T10:51:51;2.80;;;2.10;;
60610;SDS011;46439;51.164;13.572;2023-01-30T10:54:27;4.60;;;3.20;;
60610;SDS011;46439;51.164;13.572;2023-01-30T10:57:02;4.00;;;2.50;;
60610;SDS011;46439;51.164;13.572;2023-01-30T10:59:43;5.40;;;2.60;;
60610;SDS011;46439;51.164;13.572;2023-01-30T11:02:22;2.80;;;2.00;;
60610;SDS011;46439;51.164;13.572;2023-01-30T11:04:57;3.30;;;2.10;;
60610;SDS011;46439;51.164;13.572;2023-01-30T11:07:29;3.30;;;2.50;;
60610;SDS011;46439;51.164;13.572;2023-01-30T11:09:59;3.00;;;2.20;;
60610;SDS011;46439;51.164;13.572;2023-01-30T11:12:27;2.40;;;2.00;;
60610;SDS011;46439;51.164;13.572;2023-01-30T11:14:57;3.30;;;2.30;;
60610;SDS011;46439;51.164;13.572;2023-01-30T11:17:31;2.50;;;2.10;;
60610;SDS011;46439;51.164;13.572;2023-01-30T11:20:03;2.40;;;1.90;;
60610;SDS011;46439;51.164;13.572;2023-01-30T11:22:38;3.00;;;2.10;;
60610;SDS011;46439;51.164;13.572;2023-01-30T11:25:14;3.80;;;2.30;;
60610;SDS011;46439;51.164;13.572;2023-01-30T11:27:50;2.50;;;2.30;;
60610;SDS011;46439;51.164;13.572;2023-01-30T11:30:21;3.60;;;2.60;;
60610;SDS011;46439;51.164;13.572;2023-01-30T11:33:03;2.90;;;2.20;;
60610;SDS011;46439;51.164;13.572;2023-01-30T11:35:38;4.10;;;2.50;;
60610;SDS011;46439;51.164;13.572;2023-01-30T11:38:21;3.00;;;2.30;;
60610;SDS011;46439;51.164;13.572;2023-01-30T11:40:50;3.50;;;2.30;;
60610;SDS011;46439;51.164;13.572;2023-01-30T11:43:30;4.40;;;2.40;;
60610;SDS011;46439;51.164;13.572;2023-01-30T11:46:00;3.40;;;2.30;;
60610;SDS011;46439;51.164;13.572;2023-01-30T11:48:29;3.10;;;2.20;;
60610;SDS011;46439;51.164;13.572;2023-01-30T11:51:02;5.30;;;3.40;;
60610;SDS011;46439;51.164;13.572;2023-01-30T11:53:35;6.00;;;2.90;;
60610;SDS011;46439;51.164;13.572;2023-01-30T11:56:07;4.70;;;2.60;;
60610;SDS011;46439;51.164;13.572;2023-01-30T11:58:41;5.70;;;3.00;;
60610;SDS011;46439;51.164;13.572;2023-01-30T12:01:13;6.10;;;3.20;;
60610;SDS011;46439;51.164;13.572;2023-01-30T12:03:46;3.80;;;2.50;;
60610;SDS011;46439;51.164;13.572;2023-01-30T12:06:21;4.60;;;2.90;;
60610;SDS011;46439;51.164;13.572;2023-01-30T12:08:55;2.70;;;2.10;;
60610;SDS011;46439;51.164;13.572;2023-01-30T12:11:26;2.60;;;2.10;;
60610;SDS011;46439;51.164;13.572;2023-01-30T12:14:15;3.20;;;2.40;;
60610;SDS011;46439;51.164;13.572;2023-01-30T12:16:52;4.10;;;2.40;;
60610;SDS011;46439;51.164;13.572;2023-01-30T12:19:32;3.90;;;2.50;;
60610;SDS011;46439;51.164;13.572;2023-01-30T12:22:07;2.80;;;2.20;;
60610;SDS011;46439;51.164;13.572;2023-01-30T12:24:45;2.40;;;1.90;;
60610;SDS011;46439;51.164;13.572;2023-01-30T12:27:25;2.50;;;2.10;;
60610;SDS011;46439;51.164;13.572;2023-01-30T12:30:05;3.20;;;2.20;;
60610;SDS011;46439;51.164;13.572;2023-01-30T12:32:47;2.90;;;2.40;;
60610;SDS011;46439;51.164;13.572;2023-01-30T12:35:16;3.20;;;2.40;;
60610;SDS011;46439;51.164;13.572;2023-01-30T12:37:53;4.30;;;2.20;;
60610;SDS011;46439;51.164;13.572;2023-01-30T12:40:31;2.70;;;2.10;;
60610;SDS011;46439;51.164;13.572;2023-01-30T12:46:03;3.80;;;2.40;;
60610;SDS011;46439;51.164;13.572;2023-01-30T12:48:53;6.20;;;2.90;;
60610;SDS011;46439;51.164;13.572;2023-01-30T12:51:34;2.60;;;2.00;;
60610;SDS011;46439;51.164;13.572;2023-01-30T12:54:18;3.90;;;2.70;;
60610;SDS011;46439;51.164;13.572;2023-01-30T12:57:00;5.50;;;2.70;;
60610;SDS011;46439;51.164;13.572;2023-01-30T12:59:40;4.20;;;2.10;;
60610;SDS011;46439;51.164;13.572;2023-01-30T13:02:22;2.40;;;2.20;;
60610;SDS011;46439;51.164;13.572;2023-01-30T13:05:14;2.80;;;2.30;;
60610;SDS011;46439;51.164;13.572;2023-01-30T13:07:55;6.10;;;2.20;;
60610;SDS011;46439;51.164;13.572;2023-01-30T13:10:35;3.70;;;2.30;;
60610;SDS011;46439;51.164;13.572;2023-01-30T13:13:13;3.20;;;2.20;;
60610;SDS011;46439;51.164;13.572;2023-01-30T13:15:50;3.80;;;2.10;;
60610;SDS011;46439;51.164;13.572;2023-01-30T13:18:23;2.30;;;1.70;;
60610;SDS011;46439;51.164;13.572;2023-01-30T13:21:00;3.90;;;2.00;;
60610;SDS011;46439;51.164;13.572;2023-01-30T13:23:37;3.70;;;2.00;;
60610;SDS011;46439;51.164;13.572;2023-01-30T13:26:15;6.90;;;2.00;;
60610;SDS011;46439;51.164;13.572;2023-01-30T13:28:48;4.30;;;2.10;;
60610;SDS011;46439;51.164;13.572;2023-01-30T13:31:22;6.40;;;1.90;;
60610;SDS011;46439;51.164;13.572;2023-01-30T13:33:55;3.80;;;1.80;;
60610;SDS011;46439;51.164;13.572;2023-01-30T13:36:31;2.40;;;1.70;;
60610;SDS011;46439;51.164;13.572;2023-01-30T13:39:08;4.70;;;1.90;;
60610;SDS011;46439;51.164;13.572;2023-01-30T13:41:50;3.00;;;1.50;;
60610;SDS011;46439;51.164;13.572;2023-01-30T13:44:22;5.80;;;2.00;;
60610;SDS011;46439;51.164;13.572;2023-01-30T13:46:53;3.20;;;1.50;;
60610;SDS011;46439;51.164;13.572;2023-01-30T13:49:27;4.20;;;1.60;;
60610;SDS011;46439;51.164;13.572;2023-01-30T13:52:07;6.70;;;1.70;;
60610;SDS011;46439;51.164;13.572;2023-01-30T13:54:48;4.30;;;1.80;;
60610;SDS011;46439;51.164;13.572;2023-01-30T13:57:27;7.50;;;2.00;;
60610;SDS011;46439;51.164;13.572;2023-01-30T14:00:21;5.70;;;2.10;;
60610;SDS011;46439;51.164;13.572;2023-01-30T14:09:20;4.90;;;2.40;;
60610;SDS011;46439;51.164;13.572;2023-01-30T14:11:57;2.50;;;1.80;;
60610;SDS011;46439;51.164;13.572;2023-01-30T14:14:30;4.20;;;1.90;;
60610;SDS011;46439;51.164;13.572;2023-01-30T14:17:10;2.90;;;1.30;;
60610;SDS011;46439;51.164;13.572;2023-01-30T14:19:42;3.50;;;1.70;;
60610;SDS011;46439;51.164;13.572;2023-01-30T14:22:23;6.10;;;2.20;;
60610;SDS011;46439;51.164;13.572;2023-01-30T14:31:15;4.20;;;1.80;;
60610;SDS011;46439;51.164;13.572;2023-01-30T14:49:15;4.40;;;2.30;;
60610;SDS011;46439;51.164;13.572;2023-01-30T14:51:50;6.60;;;2.20;;
60610;SDS011;46439;51.164;13.572;2023-01-30T14:54:22;7.40;;;3.80;;
60610;SDS011;46439;51.164;13.572;2023-01-30T14:56:56;4.80;;;2.60;;
60610;SDS011;46439;51.164;13.572;2023-01-30T14:59:28;5.90;;;1.90;;
60610;SDS011;46439;51.164;13.572;2023-01-30T15:02:03;5.90;;;2.10;;
60610;SDS011;46439;51.164;13.572;2023-01-30T15:04:39;3.90;;;2.10;;
60610;SDS011;46439;51.164;13.572;2023-01-30T15:07:12;4.60;;;2.20;;
60610;SDS011;46439;51.164;13.572;2023-01-30T15:09:45;6.10;;;1.80;;
60610;SDS011;46439;51.164;13.572;2023-01-30T15:12:33;2.50;;;1.60;;
60610;SDS011;46439;51.164;13.572;2023-01-30T15:15:16;4.90;;;1.60;;
60610;SDS011;46439;51.164;13.572;2023-01-30T15:18:01;4.90;;;2.30;;
60610;SDS011;46439;51.164;13.572;2023-01-30T15:20:44;8.00;;;3.00;;
60610;SDS011;46439;51.164;13.572;2023-01-30T15:23:29;9.20;;;4.20;;
60610;SDS011;46439;51.164;13.572;2023-01-30T15:26:14;6.30;;;2.20;;
60610;SDS011;46439;51.164;13.572;2023-01-30T15:28:52;6.60;;;2.70;;
60610;SDS011;46439;51.164;13.572;2023-01-30T15:31:39;7.00;;;2.00;;
60610;SDS011;46439;51.164;13.572;2023-01-30T15:34:21;10.20;;;3.70;;
60610;SDS011;46439;51.164;13.572;2023-01-30T15:36:52;8.60;;;2.90;;
60610;SDS011;46439;51.164;13.572;2023-01-30T15:39:22;6.70;;;3.20;;
60610;SDS011;46439;51.164;13.572;2023-01-30T15:41:51;7.10;;;2.40;;
60610;SDS011;46439;51.164;13.572;2023-01-30T15:44:31;5.20;;;2.00;;
60610;SDS011;46439;51.164;13.572;2023-01-30T15:47:20;3.70;;;2.10;;
60610;SDS011;46439;51.164;13.572;2023-01-30T15:50:09;14.20;;;4.60;;